sensor_id;sensor_type;location;lat;lon;timestamp;temperature;humidity
9762;DHT22;4920;49.594;11.022;2022-07-03T00:01:50;15.60;99.90
9762;DHT22;4920;49.594;11.022;2022-07-03T00:04:20;15.50;99.90
9762;DHT22;4920;49.594;11.022;2022-07-03T00:06:49;15.50;99.90
9762;DHT22;4920;49.594;11.022;2022-07-03T00:09:18;15.50;99.90
9762;DHT22;4920;49.594;11.022;2022-07-03T00:11:47;15.50;99.90
9762;DHT22;4920;49.594;11.022;2022-07-03T00:14:16;15.40;99.90
9762;DHT22;4920;49.594;11.022;2022-07-03T00:16:45;15.40;99.90
9762;DHT22;4920;49.594;11.022;2022-07-03T00:19:13;15.30;99.90
9762;DHT22;4920;49.594;11.022;2022-07-03T00:21:48;15.30;99.90
9762;DHT22;4920;49.594;11.022;2022-07-03T00:24:22;15.30;99.90
9762;DHT22;4920;49.594;11.022;2022-07-03T00:26:52;15.30;99.90
9762;DHT22;4920;49.594;11.022;2022-07-03T00:29:23;15.20;1.00
9762;DHT22;4920;49.594;11.022;2022-07-03T00:31:53;15.20;1.00
9762;DHT22;4920;49.594;11.022;2022-07-03T00:34:24;15.20;1.00
9762;DHT22;4920;49.594;11.022;2022-07-03T00:36:57;15.20;1.00
9762;DHT22;4920;49.594;11.022;2022-07-03T00:39:26;15.20;1.00
9762;DHT22;4920;49.594;11.022;2022-07-03T00:42:00;15.10;1.00
9762;DHT22;4920;49.594;11.022;2022-07-03T00:44:30;15.10;1.00
9762;DHT22;4920;49.594;11.022;2022-07-03T00:46:58;15.10;1.00
9762;DHT22;4920;49.594;11.022;2022-07-03T00:49:29;15.10;1.00
9762;DHT22;4920;49.594;11.022;2022-07-03T00:52:03;15.10;1.00
9762;DHT22;4920;49.594;11.022;2022-07-03T00:54:33;15.10;1.00
9762;DHT22;4920;49.594;11.022;2022-07-03T00:57:03;15.10;1.00
9762;DHT22;4920;49.594;11.022;2022-07-03T00:59:32;15.10;1.00
9762;DHT22;4920;49.594;11.022;2022-07-03T01:02:04;15.10;1.00
9762;DHT22;4920;49.594;11.022;2022-07-03T01:04:40;15.00;1.00
9762;DHT22;4920;49.594;11.022;2022-07-03T01:07:21;15.00;1.00
9762;DHT22;4920;49.594;11.022;2022-07-03T01:10:00;14.90;1.00
9762;DHT22;4920;49.594;11.022;2022-07-03T01:12:38;14.80;1.00
9762;DHT22;4920;49.594;11.022;2022-07-03T01:15:11;14.80;1.00
9762;DHT22;4920;49.594;11.022;2022-07-03T01:17:49;14.70;1.00
9762;DHT22;4920;49.594;11.022;2022-07-03T01:20:22;14.60;1.00
9762;DHT22;4920;49.594;11.022;2022-07-03T01:22:58;14.50;1.00
9762;DHT22;4920;49.594;11.022;2022-07-03T01:25:39;14.50;1.00
9762;DHT22;4920;49.594;11.022;2022-07-03T01:28:10;14.40;1.00
9762;DHT22;4920;49.594;11.022;2022-07-03T01:30:40;14.40;1.00
9762;DHT22;4920;49.594;11.022;2022-07-03T01:33:11;14.30;1.00
9762;DHT22;4920;49.594;11.022;2022-07-03T01:35:42;14.20;1.00
9762;DHT22;4920;49.594;11.022;2022-07-03T01:38:14;14.20;1.00
9762;DHT22;4920;49.594;11.022;2022-07-03T01:40:44;14.20;1.00
9762;DHT22;4920;49.594;11.022;2022-07-03T01:43:13;14.20;1.00
9762;DHT22;4920;49.594;11.022;2022-07-03T01:45:43;14.10;1.00
9762;DHT22;4920;49.594;11.022;2022-07-03T01:48:12;14.10;1.00
9762;DHT22;4920;49.594;11.022;2022-07-03T01:50:42;14.10;1.00
9762;DHT22;4920;49.594;11.022;2022-07-03T01:53:11;14.10;1.00
9762;DHT22;4920;49.594;11.022;2022-07-03T01:55:41;14.10;1.00
9762;DHT22;4920;49.594;11.022;2022-07-03T01:58:11;14.10;1.00
9762;DHT22;4920;49.594;11.022;2022-07-03T02:00:46;14.10;1.00
9762;DHT22;4920;49.594;11.022;2022-07-03T02:03:24;14.00;1.00
9762;DHT22;4920;49.594;11.022;2022-07-03T02:06:02;14.10;1.00
9762;DHT22;4920;49.594;11.022;2022-07-03T02:08:42;14.00;1.00
9762;DHT22;4920;49.594;11.022;2022-07-03T02:11:34;14.00;1.00
9762;DHT22;4920;49.594;11.022;2022-07-03T02:14:12;14.00;1.00
9762;DHT22;4920;49.594;11.022;2022-07-03T02:16:50;14.00;1.00
9762;DHT22;4920;49.594;11.022;2022-07-03T02:19:24;13.90;1.00
9762;DHT22;4920;49.594;11.022;2022-07-03T02:21:56;13.90;1.00
9762;DHT22;4920;49.594;11.022;2022-07-03T02:24:27;13.90;1.00
9762;DHT22;4920;49.594;11.022;2022-07-03T02:27:01;13.90;1.00
9762;DHT22;4920;49.594;11.022;2022-07-03T02:29:36;13.80;1.00
9762;DHT22;4920;49.594;11.022;2022-07-03T02:32:10;13.80;1.00
9762;DHT22;4920;49.594;11.022;2022-07-03T02:34:44;13.80;1.00
9762;DHT22;4920;49.594;11.022;2022-07-03T02:37:17;13.70;1.00
9762;DHT22;4920;49.594;11.022;2022-07-03T02:39:49;13.70;1.00
9762;DHT22;4920;49.594;11.022;2022-07-03T02:42:28;13.70;1.00
9762;DHT22;4920;49.594;11.022;2022-07-03T02:45:01;13.60;1.00
9762;DHT22;4920;49.594;11.022;2022-07-03T02:47:35;13.50;1.00
9762;DHT22;4920;49.594;11.022;2022-07-03T02:50:06;13.50;1.00
9762;DHT22;4920;49.594;11.022;2022-07-03T02:52:56;13.50;1.00
9762;DHT22;4920;49.594;11.022;2022-07-03T02:55:39;13.40;1.00
9762;DHT22;4920;49.594;11.022;2022-07-03T02:58:32;13.40;1.00
9762;DHT22;4920;49.594;11.022;2022-07-03T03:01:09;13.40;1.00
9762;DHT22;4920;49.594;11.022;2022-07-03T03:03:48;13.30;1.00
9762;DHT22;4920;49.594;11.022;2022-07-03T03:06:21;13.30;1.00
9762;DHT22;4920;49.594;11.022;2022-07-03T03:08:55;13.30;1.00
9762;DHT22;4920;49.594;11.022;2022-07-03T03:11:32;13.30;1.00
9762;DHT22;4920;49.594;11.022;2022-07-03T03:14:05;13.30;1.00
9762;DHT22;4920;49.594;11.022;2022-07-03T03:16:41;13.40;1.00
9762;DHT22;4920;49.594;11.022;2022-07-03T03:19:14;13.40;1.00
9762;DHT22;4920;49.594;11.022;2022-07-03T03:21:50;13.40;1.00
9762;DHT22;4920;49.594;11.022;2022-07-03T03:24:21;13.40;1.00
9762;DHT22;4920;49.594;11.022;2022-07-03T03:26:50;13.50;1.00
9762;DHT22;4920;49.594;11.022;2022-07-03T03:29:19;13.50;1.00
9762;DHT22;4920;49.594;11.022;2022-07-03T03:31:48;13.50;1.00
9762;DHT22;4920;49.594;11.022;2022-07-03T03:34:17;13.50;1.00
9762;DHT22;4920;49.594;11.022;2022-07-03T03:36:46;13.50;1.00
9762;DHT22;4920;49.594;11.022;2022-07-03T03:39:17;13.50;1.00
9762;DHT22;4920;49.594;11.022;2022-07-03T03:41:46;13.50;1.00
9762;DHT22;4920;49.594;11.022;2022-07-03T03:44:14;13.50;1.00
9762;DHT22;4920;49.594;11.022;2022-07-03T03:46:43;13.60;1.00
9762;DHT22;4920;49.594;11.022;2022-07-03T03:49:13;13.60;1.00
9762;DHT22;4920;49.594;11.022;2022-07-03T03:51:42;13.60;1.00
9762;DHT22;4920;49.594;11.022;2022-07-03T03:54:10;13.70;1.00
9762;DHT22;4920;49.594;11.022;2022-07-03T03:56:39;13.70;1.00
9762;DHT22;4920;49.594;11.022;2022-07-03T03:59:07;13.80;1.00
9762;DHT22;4920;49.594;11.022;2022-07-03T04:01:35;13.80;1.00
9762;DHT22;4920;49.594;11.022;2022-07-03T04:04:04;13.90;1.00
9762;DHT22;4920;49.594;11.022;2022-07-03T04:06:34;14.00;1.00
9762;DHT22;4920;49.594;11.022;2022-07-03T04:09:02;14.00;1.00
9762;DHT22;4920;49.594;11.022;2022-07-03T04:11:31;14.00;1.00
9762;DHT22;4920;49.594;11.022;2022-07-03T04:13:59;14.10;1.00
9762;DHT22;4920;49.594;11.022;2022-07-03T04:16:27;14.20;1.00
9762;DHT22;4920;49.594;11.022;2022-07-03T04:18:56;14.20;1.00
9762;DHT22;4920;49.594;11.022;2022-07-03T04:21:24;14.70;1.00
9762;DHT22;4920;49.594;11.022;2022-07-03T04:23:54;15.50;99.90
9762;DHT22;4920;49.594;11.022;2022-07-03T04:26:23;16.40;99.90
9762;DHT22;4920;49.594;11.022;2022-07-03T04:28:51;17.40;99.90
9762;DHT22;4920;49.594;11.022;2022-07-03T04:31:20;18.40;99.90
9762;DHT22;4920;49.594;11.022;2022-07-03T04:33:48;19.20;99.90
9762;DHT22;4920;49.594;11.022;2022-07-03T04:36:17;20.00;99.90
9762;DHT22;4920;49.594;11.022;2022-07-03T04:38:45;20.70;99.90
9762;DHT22;4920;49.594;11.022;2022-07-03T04:41:15;21.20;99.90
9762;DHT22;4920;49.594;11.022;2022-07-03T04:43:44;21.70;99.90
9762;DHT22;4920;49.594;11.022;2022-07-03T04:46:12;22.10;99.90
9762;DHT22;4920;49.594;11.022;2022-07-03T04:48:41;22.40;99.90
9762;DHT22;4920;49.594;11.022;2022-07-03T04:51:09;22.70;99.90
9762;DHT22;4920;49.594;11.022;2022-07-03T04:53:38;23.20;99.90
9762;DHT22;4920;49.594;11.022;2022-07-03T04:56:06;23.50;99.90
9762;DHT22;4920;49.594;11.022;2022-07-03T04:58:36;23.90;99.90
9762;DHT22;4920;49.594;11.022;2022-07-03T05:01:04;24.30;99.90
9762;DHT22;4920;49.594;11.022;2022-07-03T05:03:32;24.70;99.90
9762;DHT22;4920;49.594;11.022;2022-07-03T05:06:01;25.10;99.90
9762;DHT22;4920;49.594;11.022;2022-07-03T05:08:29;25.40;98.50
9762;DHT22;4920;49.594;11.022;2022-07-03T05:10:58;25.60;97.40
9762;DHT22;4920;49.594;11.022;2022-07-03T05:13:27;25.70;96.60
9762;DHT22;4920;49.594;11.022;2022-07-03T05:15:57;25.90;95.90
9762;DHT22;4920;49.594;11.022;2022-07-03T05:18:25;26.10;95.00
9762;DHT22;4920;49.594;11.022;2022-07-03T05:20:54;26.20;94.40
9762;DHT22;4920;49.594;11.022;2022-07-03T05:23:22;26.30;93.80
9762;DHT22;4920;49.594;11.022;2022-07-03T05:25:50;26.50;93.10
9762;DHT22;4920;49.594;11.022;2022-07-03T05:28:19;26.70;92.60
9762;DHT22;4920;49.594;11.022;2022-07-03T05:30:48;26.90;92.10
9762;DHT22;4920;49.594;11.022;2022-07-03T05:33:18;27.10;91.50
9762;DHT22;4920;49.594;11.022;2022-07-03T05:35:46;27.20;91.20
9762;DHT22;4920;49.594;11.022;2022-07-03T05:38:15;27.30;90.70
9762;DHT22;4920;49.594;11.022;2022-07-03T05:41:05;27.30;90.40
9762;DHT22;4920;49.594;11.022;2022-07-03T05:43:33;27.30;90.10
9762;DHT22;4920;49.594;11.022;2022-07-03T05:46:02;27.30;90.10
9762;DHT22;4920;49.594;11.022;2022-07-03T05:48:32;27.30;89.60
9762;DHT22;4920;49.594;11.022;2022-07-03T05:51:01;27.40;89.30
9762;DHT22;4920;49.594;11.022;2022-07-03T05:53:30;27.40;89.10
9762;DHT22;4920;49.594;11.022;2022-07-03T05:55:58;27.30;89.00
9762;DHT22;4920;49.594;11.022;2022-07-03T05:58:27;27.10;88.80
9762;DHT22;4920;49.594;11.022;2022-07-03T06:00:55;27.00;89.20
9762;DHT22;4920;49.594;11.022;2022-07-03T06:03:24;26.90;89.70
9762;DHT22;4920;49.594;11.022;2022-07-03T06:05:54;26.80;89.90
9762;DHT22;4920;49.594;11.022;2022-07-03T06:08:22;26.70;89.50
9762;DHT22;4920;49.594;11.022;2022-07-03T06:10:50;26.60;90.10
9762;DHT22;4920;49.594;11.022;2022-07-03T06:13:19;26.50;90.00
9762;DHT22;4920;49.594;11.022;2022-07-03T06:15:47;26.40;90.10
9762;DHT22;4920;49.594;11.022;2022-07-03T06:18:16;26.20;90.30
9762;DHT22;4920;49.594;11.022;2022-07-03T06:20:44;26.10;90.50
9762;DHT22;4920;49.594;11.022;2022-07-03T06:23:14;25.90;90.70
9762;DHT22;4920;49.594;11.022;2022-07-03T06:26:02;25.70;90.70
9762;DHT22;4920;49.594;11.022;2022-07-03T06:28:30;25.50;91.10
9762;DHT22;4920;49.594;11.022;2022-07-03T06:30:59;25.50;91.40
9762;DHT22;4920;49.594;11.022;2022-07-03T06:33:27;25.40;91.70
9762;DHT22;4920;49.594;11.022;2022-07-03T06:35:56;25.20;91.70
9762;DHT22;4920;49.594;11.022;2022-07-03T06:38:26;25.00;92.10
9762;DHT22;4920;49.594;11.022;2022-07-03T06:40:54;24.90;92.30
9762;DHT22;4920;49.594;11.022;2022-07-03T06:43:22;24.80;92.40
9762;DHT22;4920;49.594;11.022;2022-07-03T06:45:51;24.70;92.70
9762;DHT22;4920;49.594;11.022;2022-07-03T06:48:19;24.50;93.20
9762;DHT22;4920;49.594;11.022;2022-07-03T06:50:48;24.50;93.60
9762;DHT22;4920;49.594;11.022;2022-07-03T06:53:17;24.40;93.80
9762;DHT22;4920;49.594;11.022;2022-07-03T06:55:47;24.40;94.10
9762;DHT22;4920;49.594;11.022;2022-07-03T06:58:15;24.40;94.10
9762;DHT22;4920;49.594;11.022;2022-07-03T07:00:44;24.30;93.90
9762;DHT22;4920;49.594;11.022;2022-07-03T07:03:12;24.30;93.70
9762;DHT22;4920;49.594;11.022;2022-07-03T07:05:41;24.20;93.70
9762;DHT22;4920;49.594;11.022;2022-07-03T07:08:09;24.20;93.70
9762;DHT22;4920;49.594;11.022;2022-07-03T07:10:37;24.30;93.70
9762;DHT22;4920;49.594;11.022;2022-07-03T07:13:08;24.30;93.80
9762;DHT22;4920;49.594;11.022;2022-07-03T07:15:37;24.30;93.90
9762;DHT22;4920;49.594;11.022;2022-07-03T07:18:05;24.30;94.10
9762;DHT22;4920;49.594;11.022;2022-07-03T07:20:33;24.30;93.80
9762;DHT22;4920;49.594;11.022;2022-07-03T07:23:02;24.30;93.90
9762;DHT22;4920;49.594;11.022;2022-07-03T07:25:30;24.30;94.10
9762;DHT22;4920;49.594;11.022;2022-07-03T07:27:59;24.30;93.70
9762;DHT22;4920;49.594;11.022;2022-07-03T07:30:29;24.20;93.40
9762;DHT22;4920;49.594;11.022;2022-07-03T07:32:57;24.20;93.70
9762;DHT22;4920;49.594;11.022;2022-07-03T07:35:25;24.20;93.80
9762;DHT22;4920;49.594;11.022;2022-07-03T07:37:54;24.20;93.70
9762;DHT22;4920;49.594;11.022;2022-07-03T07:40:22;24.10;93.30
9762;DHT22;4920;49.594;11.022;2022-07-03T07:42:51;24.10;93.50
9762;DHT22;4920;49.594;11.022;2022-07-03T07:45:20;24.10;93.60
9762;DHT22;4920;49.594;11.022;2022-07-03T07:47:50;24.00;93.90
9762;DHT22;4920;49.594;11.022;2022-07-03T07:50:19;24.00;94.30
9762;DHT22;4920;49.594;11.022;2022-07-03T07:52:47;24.00;94.30
9762;DHT22;4920;49.594;11.022;2022-07-03T07:55:16;24.10;93.60
9762;DHT22;4920;49.594;11.022;2022-07-03T07:57:44;24.00;93.40
9762;DHT22;4920;49.594;11.022;2022-07-03T08:00:15;24.00;93.80
9762;DHT22;4920;49.594;11.022;2022-07-03T08:02:45;24.00;93.80
9762;DHT22;4920;49.594;11.022;2022-07-03T08:05:33;24.00;94.10
9762;DHT22;4920;49.594;11.022;2022-07-03T08:08:07;24.00;94.20
9762;DHT22;4920;49.594;11.022;2022-07-03T08:10:37;24.10;93.90
9762;DHT22;4920;49.594;11.022;2022-07-03T08:13:07;24.10;94.00
9762;DHT22;4920;49.594;11.022;2022-07-03T08:15:35;24.20;94.20
9762;DHT22;4920;49.594;11.022;2022-07-03T08:18:04;24.20;94.20
9762;DHT22;4920;49.594;11.022;2022-07-03T08:20:35;24.30;93.60
9762;DHT22;4920;49.594;11.022;2022-07-03T08:23:04;24.30;93.70
9762;DHT22;4920;49.594;11.022;2022-07-03T08:25:33;24.40;93.50
9762;DHT22;4920;49.594;11.022;2022-07-03T08:28:02;24.50;93.10
9762;DHT22;4920;49.594;11.022;2022-07-03T08:30:31;24.50;93.00
9762;DHT22;4920;49.594;11.022;2022-07-03T08:33:00;24.60;93.10
9762;DHT22;4920;49.594;11.022;2022-07-03T08:35:28;24.70;93.50
9762;DHT22;4920;49.594;11.022;2022-07-03T08:37:59;24.90;93.40
9762;DHT22;4920;49.594;11.022;2022-07-03T08:40:27;24.90;92.80
9762;DHT22;4920;49.594;11.022;2022-07-03T08:42:57;25.00;93.20
9762;DHT22;4920;49.594;11.022;2022-07-03T08:45:28;25.10;93.30
9762;DHT22;4920;49.594;11.022;2022-07-03T08:47:58;25.10;92.50
9762;DHT22;4920;49.594;11.022;2022-07-03T08:50:27;25.20;92.50
9762;DHT22;4920;49.594;11.022;2022-07-03T08:52:59;25.20;92.90
9762;DHT22;4920;49.594;11.022;2022-07-03T08:55:30;25.30;93.10
9762;DHT22;4920;49.594;11.022;2022-07-03T08:58:02;25.50;92.80
9762;DHT22;4920;49.594;11.022;2022-07-03T09:00:31;25.50;92.00
9762;DHT22;4920;49.594;11.022;2022-07-03T09:03:00;25.60;91.90
9762;DHT22;4920;49.594;11.022;2022-07-03T09:05:31;25.60;91.90
9762;DHT22;4920;49.594;11.022;2022-07-03T09:08:06;25.70;91.50
9762;DHT22;4920;49.594;11.022;2022-07-03T09:10:35;25.70;91.50
9762;DHT22;4920;49.594;11.022;2022-07-03T09:13:03;25.80;91.50
9762;DHT22;4920;49.594;11.022;2022-07-03T09:15:32;25.90;91.80
9762;DHT22;4920;49.594;11.022;2022-07-03T09:18:01;26.20;91.50
9762;DHT22;4920;49.594;11.022;2022-07-03T09:20:33;26.30;90.40
9762;DHT22;4920;49.594;11.022;2022-07-03T09:23:11;26.40;90.30
9762;DHT22;4920;49.594;11.022;2022-07-03T09:25:54;26.50;88.50
9762;DHT22;4920;49.594;11.022;2022-07-03T09:28:23;26.50;87.50
9762;DHT22;4920;49.594;11.022;2022-07-03T09:30:59;26.50;88.00
9762;DHT22;4920;49.594;11.022;2022-07-03T09:33:29;26.60;87.10
9762;DHT22;4920;49.594;11.022;2022-07-03T09:35:57;26.60;87.30
9762;DHT22;4920;49.594;11.022;2022-07-03T09:38:27;26.70;87.10
9762;DHT22;4920;49.594;11.022;2022-07-03T09:40:55;26.80;85.30
9762;DHT22;4920;49.594;11.022;2022-07-03T09:43:27;26.80;84.40
9762;DHT22;4920;49.594;11.022;2022-07-03T09:45:58;26.70;84.30
9762;DHT22;4920;49.594;11.022;2022-07-03T09:48:28;26.70;84.00
9762;DHT22;4920;49.594;11.022;2022-07-03T09:51:23;26.70;83.70
9762;DHT22;4920;49.594;11.022;2022-07-03T09:53:56;26.80;84.30
9762;DHT22;4920;49.594;11.022;2022-07-03T09:56:26;26.80;84.00
9762;DHT22;4920;49.594;11.022;2022-07-03T09:59:00;26.70;83.50
9762;DHT22;4920;49.594;11.022;2022-07-03T10:01:29;26.80;82.10
9762;DHT22;4920;49.594;11.022;2022-07-03T10:04:12;26.80;82.10
9762;DHT22;4920;49.594;11.022;2022-07-03T10:06:52;26.90;81.70
9762;DHT22;4920;49.594;11.022;2022-07-03T10:09:25;27.10;81.90
9762;DHT22;4920;49.594;11.022;2022-07-03T10:11:55;27.20;82.50
9762;DHT22;4920;49.594;11.022;2022-07-03T10:14:25;27.30;82.80
9762;DHT22;4920;49.594;11.022;2022-07-03T10:16:53;27.40;79.50
9762;DHT22;4920;49.594;11.022;2022-07-03T10:19:27;27.50;80.20
9762;DHT22;4920;49.594;11.022;2022-07-03T10:21:57;27.60;79.00
9762;DHT22;4920;49.594;11.022;2022-07-03T10:24:28;27.70;79.60
9762;DHT22;4920;49.594;11.022;2022-07-03T10:26:58;27.80;79.90
9762;DHT22;4920;49.594;11.022;2022-07-03T10:29:28;27.90;79.80
9762;DHT22;4920;49.594;11.022;2022-07-03T10:31:57;28.00;77.70
9762;DHT22;4920;49.594;11.022;2022-07-03T10:34:26;27.90;77.00
9762;DHT22;4920;49.594;11.022;2022-07-03T10:36:59;27.90;76.80
9762;DHT22;4920;49.594;11.022;2022-07-03T10:39:36;28.00;77.60
9762;DHT22;4920;49.594;11.022;2022-07-03T10:42:08;28.10;76.00
9762;DHT22;4920;49.594;11.022;2022-07-03T10:45:08;28.20;71.90
9762;DHT22;4920;49.594;11.022;2022-07-03T10:47:38;28.40;67.10
9762;DHT22;4920;49.594;11.022;2022-07-03T10:50:08;28.50;69.60
9762;DHT22;4920;49.594;11.022;2022-07-03T10:52:39;28.50;65.70
9762;DHT22;4920;49.594;11.022;2022-07-03T10:55:10;28.40;66.80
9762;DHT22;4920;49.594;11.022;2022-07-03T10:57:39;28.40;68.80
9762;DHT22;4920;49.594;11.022;2022-07-03T11:00:16;28.40;67.10
9762;DHT22;4920;49.594;11.022;2022-07-03T11:02:47;28.40;66.90
9762;DHT22;4920;49.594;11.022;2022-07-03T11:05:22;28.50;66.30
9762;DHT22;4920;49.594;11.022;2022-07-03T11:08:05;28.60;64.80
9762;DHT22;4920;49.594;11.022;2022-07-03T11:10:36;28.70;64.20
9762;DHT22;4920;49.594;11.022;2022-07-03T11:13:17;28.80;64.60
9762;DHT22;4920;49.594;11.022;2022-07-03T11:15:51;28.90;62.10
9762;DHT22;4920;49.594;11.022;2022-07-03T11:18:30;28.90;61.50
9762;DHT22;4920;49.594;11.022;2022-07-03T11:21:21;28.90;62.00
9762;DHT22;4920;49.594;11.022;2022-07-03T11:27:14;29.00;62.60
9762;DHT22;4920;49.594;11.022;2022-07-03T11:29:50;29.20;61.50
9762;DHT22;4920;49.594;11.022;2022-07-03T11:32:46;29.30;59.70
9762;DHT22;4920;49.594;11.022;2022-07-03T11:35:51;29.30;59.30
9762;DHT22;4920;49.594;11.022;2022-07-03T11:38:26;29.20;59.60
9762;DHT22;4920;49.594;11.022;2022-07-03T11:40:57;29.20;60.30
9762;DHT22;4920;49.594;11.022;2022-07-03T11:43:27;29.20;59.20
9762;DHT22;4920;49.594;11.022;2022-07-03T11:45:56;29.10;59.10
9762;DHT22;4920;49.594;11.022;2022-07-03T11:48:25;29.10;59.50
9762;DHT22;4920;49.594;11.022;2022-07-03T11:50:59;29.30;59.90
9762;DHT22;4920;49.594;11.022;2022-07-03T11:53:30;29.30;58.90
9762;DHT22;4920;49.594;11.022;2022-07-03T11:56:01;29.40;59.00
9762;DHT22;4920;49.594;11.022;2022-07-03T11:58:47;29.50;58.70
9762;DHT22;4920;49.594;11.022;2022-07-03T12:01:30;29.60;58.50
9762;DHT22;4920;49.594;11.022;2022-07-03T12:04:08;29.60;57.60
9762;DHT22;4920;49.594;11.022;2022-07-03T12:06:38;29.60;58.50
9762;DHT22;4920;49.594;11.022;2022-07-03T12:09:18;29.70;58.30
9762;DHT22;4920;49.594;11.022;2022-07-03T12:11:59;29.60;58.40
9762;DHT22;4920;49.594;11.022;2022-07-03T12:14:40;29.60;58.60
9762;DHT22;4920;49.594;11.022;2022-07-03T12:17:11;29.80;59.20
9762;DHT22;4920;49.594;11.022;2022-07-03T12:19:47;29.90;58.40
9762;DHT22;4920;49.594;11.022;2022-07-03T12:22:24;30.00;57.70
9762;DHT22;4920;49.594;11.022;2022-07-03T12:25:00;30.10;56.00
9762;DHT22;4920;49.594;11.022;2022-07-03T12:27:29;30.10;55.70
9762;DHT22;4920;49.594;11.022;2022-07-03T12:30:00;30.00;56.10
9762;DHT22;4920;49.594;11.022;2022-07-03T12:32:29;30.00;56.70
9762;DHT22;4920;49.594;11.022;2022-07-03T12:34:57;30.10;56.90
9762;DHT22;4920;49.594;11.022;2022-07-03T12:37:33;30.20;57.50
9762;DHT22;4920;49.594;11.022;2022-07-03T12:40:03;30.30;55.80
9762;DHT22;4920;49.594;11.022;2022-07-03T12:42:42;30.30;56.20
9762;DHT22;4920;49.594;11.022;2022-07-03T12:45:13;30.30;55.80
9762;DHT22;4920;49.594;11.022;2022-07-03T12:47:43;30.30;56.00
9762;DHT22;4920;49.594;11.022;2022-07-03T12:50:13;30.30;55.80
9762;DHT22;4920;49.594;11.022;2022-07-03T12:52:51;30.30;55.50
9762;DHT22;4920;49.594;11.022;2022-07-03T12:55:24;30.30;56.10
9762;DHT22;4920;49.594;11.022;2022-07-03T12:58:12;30.40;55.80
9762;DHT22;4920;49.594;11.022;2022-07-03T13:01:00;30.50;53.10
9762;DHT22;4920;49.594;11.022;2022-07-03T13:03:31;30.40;53.50
9762;DHT22;4920;49.594;11.022;2022-07-03T13:06:12;30.30;53.80
9762;DHT22;4920;49.594;11.022;2022-07-03T13:08:52;30.40;55.00
9762;DHT22;4920;49.594;11.022;2022-07-03T13:11:28;30.50;56.50
9762;DHT22;4920;49.594;11.022;2022-07-03T13:14:03;30.60;54.90
9762;DHT22;4920;49.594;11.022;2022-07-03T13:16:41;30.70;55.40
9762;DHT22;4920;49.594;11.022;2022-07-03T13:19:12;30.80;54.30
9762;DHT22;4920;49.594;11.022;2022-07-03T13:21:40;30.90;54.80
9762;DHT22;4920;49.594;11.022;2022-07-03T13:24:11;30.90;53.60
9762;DHT22;4920;49.594;11.022;2022-07-03T13:26:40;30.90;54.40
9762;DHT22;4920;49.594;11.022;2022-07-03T13:29:09;31.00;54.90
9762;DHT22;4920;49.594;11.022;2022-07-03T13:31:39;31.00;53.80
9762;DHT22;4920;49.594;11.022;2022-07-03T13:34:08;31.00;52.30
9762;DHT22;4920;49.594;11.022;2022-07-03T13:36:37;31.00;52.60
9762;DHT22;4920;49.594;11.022;2022-07-03T13:39:05;31.10;53.40
9762;DHT22;4920;49.594;11.022;2022-07-03T13:41:35;31.10;52.60
9762;DHT22;4920;49.594;11.022;2022-07-03T13:44:04;31.20;52.70
9762;DHT22;4920;49.594;11.022;2022-07-03T13:46:33;31.20;52.70
9762;DHT22;4920;49.594;11.022;2022-07-03T13:49:02;31.30;53.20
9762;DHT22;4920;49.594;11.022;2022-07-03T13:51:31;31.30;52.70
9762;DHT22;4920;49.594;11.022;2022-07-03T13:53:59;31.30;51.70
9762;DHT22;4920;49.594;11.022;2022-07-03T13:56:28;31.30;50.50
9762;DHT22;4920;49.594;11.022;2022-07-03T13:58:57;31.20;50.20
9762;DHT22;4920;49.594;11.022;2022-07-03T14:01:25;31.20;50.40
9762;DHT22;4920;49.594;11.022;2022-07-03T14:03:54;31.10;51.40
9762;DHT22;4920;49.594;11.022;2022-07-03T14:06:24;31.20;50.20
9762;DHT22;4920;49.594;11.022;2022-07-03T14:08:52;31.10;50.90
9762;DHT22;4920;49.594;11.022;2022-07-03T14:11:20;31.20;50.80
9762;DHT22;4920;49.594;11.022;2022-07-03T14:13:49;31.10;50.40
9762;DHT22;4920;49.594;11.022;2022-07-03T14:16:18;31.10;51.80
9762;DHT22;4920;49.594;11.022;2022-07-03T14:18:46;31.10;50.40
9762;DHT22;4920;49.594;11.022;2022-07-03T14:21:15;31.10;50.40
9762;DHT22;4920;49.594;11.022;2022-07-03T14:23:45;31.10;51.20
9762;DHT22;4920;49.594;11.022;2022-07-03T14:26:13;31.20;52.10
9762;DHT22;4920;49.594;11.022;2022-07-03T14:28:41;31.20;50.30
9762;DHT22;4920;49.594;11.022;2022-07-03T14:31:27;31.10;50.30
9762;DHT22;4920;49.594;11.022;2022-07-03T14:34:13;31.00;50.40
9762;DHT22;4920;49.594;11.022;2022-07-03T14:36:41;31.10;50.10
9762;DHT22;4920;49.594;11.022;2022-07-03T14:39:12;31.10;50.30
9762;DHT22;4920;49.594;11.022;2022-07-03T14:41:41;31.10;52.10
9762;DHT22;4920;49.594;11.022;2022-07-03T14:44:10;31.20;51.40
9762;DHT22;4920;49.594;11.022;2022-07-03T14:46:38;31.20;52.70
9762;DHT22;4920;49.594;11.022;2022-07-03T14:49:07;31.30;52.00
9762;DHT22;4920;49.594;11.022;2022-07-03T14:51:35;31.30;52.70
9762;DHT22;4920;49.594;11.022;2022-07-03T14:54:04;31.30;52.70
9762;DHT22;4920;49.594;11.022;2022-07-03T14:56:38;31.40;51.50
9762;DHT22;4920;49.594;11.022;2022-07-03T14:59:08;31.40;50.50
9762;DHT22;4920;49.594;11.022;2022-07-03T15:01:40;31.30;51.00
9762;DHT22;4920;49.594;11.022;2022-07-03T15:04:15;31.20;51.80
9762;DHT22;4920;49.594;11.022;2022-07-03T15:06:48;31.20;53.00
9762;DHT22;4920;49.594;11.022;2022-07-03T15:09:21;31.20;53.20
9762;DHT22;4920;49.594;11.022;2022-07-03T15:11:55;31.20;52.70
9762;DHT22;4920;49.594;11.022;2022-07-03T15:14:43;31.30;52.00
9762;DHT22;4920;49.594;11.022;2022-07-03T15:17:12;31.30;52.30
9762;DHT22;4920;49.594;11.022;2022-07-03T15:19:42;31.30;52.40
9762;DHT22;4920;49.594;11.022;2022-07-03T15:22:15;31.30;51.90
9762;DHT22;4920;49.594;11.022;2022-07-03T15:24:46;31.20;52.70
9762;DHT22;4920;49.594;11.022;2022-07-03T15:27:19;31.30;53.40
9762;DHT22;4920;49.594;11.022;2022-07-03T15:29:48;31.40;54.00
9762;DHT22;4920;49.594;11.022;2022-07-03T15:32:18;31.30;52.10
9762;DHT22;4920;49.594;11.022;2022-07-03T15:34:46;31.30;52.00
9762;DHT22;4920;49.594;11.022;2022-07-03T15:37:31;31.30;52.60
9762;DHT22;4920;49.594;11.022;2022-07-03T15:40:04;31.30;52.00
9762;DHT22;4920;49.594;11.022;2022-07-03T15:42:48;31.30;52.10
9762;DHT22;4920;49.594;11.022;2022-07-03T15:45:30;31.20;52.60
9762;DHT22;4920;49.594;11.022;2022-07-03T15:48:07;31.30;52.60
9762;DHT22;4920;49.594;11.022;2022-07-03T15:50:43;31.20;52.20
9762;DHT22;4920;49.594;11.022;2022-07-03T15:53:18;31.20;53.70
9762;DHT22;4920;49.594;11.022;2022-07-03T15:55:48;31.20;52.10
9762;DHT22;4920;49.594;11.022;2022-07-03T15:58:28;31.10;52.90
9762;DHT22;4920;49.594;11.022;2022-07-03T16:00:58;31.10;52.60
9762;DHT22;4920;49.594;11.022;2022-07-03T16:03:54;31.10;52.60
9762;DHT22;4920;49.594;11.022;2022-07-03T16:06:33;31.10;52.50
9762;DHT22;4920;49.594;11.022;2022-07-03T16:09:04;31.00;51.60
9762;DHT22;4920;49.594;11.022;2022-07-03T16:11:34;31.00;52.30
9762;DHT22;4920;49.594;11.022;2022-07-03T16:14:05;31.00;51.70
9762;DHT22;4920;49.594;11.022;2022-07-03T16:16:33;30.90;52.00
9762;DHT22;4920;49.594;11.022;2022-07-03T16:19:03;30.90;52.40
9762;DHT22;4920;49.594;11.022;2022-07-03T16:21:32;30.90;52.40
9762;DHT22;4920;49.594;11.022;2022-07-03T16:24:05;30.90;51.60